sensor_id;sensor_type;location;lat;lon;timestamp;P1;durP1;ratioP1;P2;durP2;ratioP2
40367;SDS011;26075;43.320;21.920;2023-10-19T00:03:30;18.02;;;11.48;;
40367;SDS011;26075;43.320;21.920;2023-10-19T00:08:32;18.25;;;12.95;;
40367;SDS011;26075;43.320;21.920;2023-10-19T00:13:42;19.80;;;12.05;;
40367;SDS011;26075;43.320;21.920;2023-10-19T00:18:44;18.58;;;12.23;;
40367;SDS011;26075;43.320;21.920;2023-10-19T00:23:54;17.23;;;11.27;;
40367;SDS011;26075;43.320;21.920;2023-10-19T00:29:05;20.02;;;12.25;;
40367;SDS011;26075;43.320;21.920;2023-10-19T00:34:29;20.92;;;13.88;;
40367;SDS011;26075;43.320;21.920;2023-10-19T00:39:30;22.05;;;13.75;;
40367;SDS011;26075;43.320;21.920;2023-10-19T00:44:41;20.20;;;12.13;;
40367;SDS011;26075;43.320;21.920;2023-10-19T00:49:42;15.13;;;10.27;;
40367;SDS011;26075;43.320;21.920;2023-10-19T00:54:44;11.57;;;8.50;;
40367;SDS011;26075;43.320;21.920;2023-10-19T00:59:49;14.70;;;9.43;;
40367;SDS011;26075;43.320;21.920;2023-10-19T01:04:55;14.10;;;10.00;;
40367;SDS011;26075;43.320;21.920;2023-10-19T01:10:00;19.92;;;8.85;;
40367;SDS011;26075;43.320;21.920;2023-10-19T01:15:21;12.63;;;8.60;;
40367;SDS011;26075;43.320;21.920;2023-10-19T01:20:29;10.80;;;8.10;;
40367;SDS011;26075;43.320;21.920;2023-10-19T01:25:30;11.70;;;7.50;;
40367;SDS011;26075;43.320;21.920;2023-10-19T01:30:35;11.48;;;7.25;;
40367;SDS011;26075;43.320;21.920;2023-10-19T01:35:36;9.90;;;8.25;;
40367;SDS011;26075;43.320;21.920;2023-10-19T01:40:56;11.27;;;7.97;;
40367;SDS011;26075;43.320;21.920;2023-10-19T01:45:59;11.45;;;8.32;;
40367;SDS011;26075;43.320;21.920;2023-10-19T01:56:06;12.40;;;8.85;;
40367;SDS011;26075;43.320;21.920;2023-10-19T02:01:09;14.18;;;8.05;;
40367;SDS011;26075;43.320;21.920;2023-10-19T02:06:14;12.65;;;8.98;;
40367;SDS011;26075;43.320;21.920;2023-10-19T02:11:27;11.15;;;8.23;;
40367;SDS011;26075;43.320;21.920;2023-10-19T02:16:28;11.88;;;7.70;;
40367;SDS011;26075;43.320;21.920;2023-10-19T02:21:29;12.68;;;8.20;;
40367;SDS011;26075;43.320;21.920;2023-10-19T02:26:31;13.15;;;8.40;;
40367;SDS011;26075;43.320;21.920;2023-10-19T02:31:32;8.95;;;6.82;;
40367;SDS011;26075;43.320;21.920;2023-10-19T02:36:33;8.13;;;6.30;;
40367;SDS011;26075;43.320;21.920;2023-10-19T02:41:43;9.40;;;7.13;;
40367;SDS011;26075;43.320;21.920;2023-10-19T02:46:48;10.68;;;6.82;;
40367;SDS011;26075;43.320;21.920;2023-10-19T02:51:50;10.50;;;7.35;;
40367;SDS011;26075;43.320;21.920;2023-10-19T02:56:53;11.25;;;7.22;;
40367;SDS011;26075;43.320;21.920;2023-10-19T03:01:57;13.43;;;7.28;;
40367;SDS011;26075;43.320;21.920;2023-10-19T03:07:04;10.35;;;7.20;;
40367;SDS011;26075;43.320;21.920;2023-10-19T03:12:05;11.07;;;8.00;;
40367;SDS011;26075;43.320;21.920;2023-10-19T03:17:14;10.20;;;7.57;;
40367;SDS011;26075;43.320;21.920;2023-10-19T03:22:15;9.07;;;6.90;;
40367;SDS011;26075;43.320;21.920;2023-10-19T03:27:19;9.68;;;7.75;;
40367;SDS011;26075;43.320;21.920;2023-10-19T03:32:24;9.05;;;7.53;;
40367;SDS011;26075;43.320;21.920;2023-10-19T03:37:32;9.65;;;7.22;;
40367;SDS011;26075;43.320;21.920;2023-10-19T03:42:36;10.02;;;6.95;;
40367;SDS011;26075;43.320;21.920;2023-10-19T03:47:46;11.32;;;7.75;;
40367;SDS011;26075;43.320;21.920;2023-10-19T03:52:50;13.80;;;8.07;;
40367;SDS011;26075;43.320;21.920;2023-10-19T03:57:51;9.50;;;8.05;;
40367;SDS011;26075;43.320;21.920;2023-10-19T04:02:55;11.55;;;8.02;;
40367;SDS011;26075;43.320;21.920;2023-10-19T04:07:58;13.32;;;8.00;;
40367;SDS011;26075;43.320;21.920;2023-10-19T04:12:59;10.43;;;8.02;;
40367;SDS011;26075;43.320;21.920;2023-10-19T04:18:01;12.27;;;7.55;;
40367;SDS011;26075;43.320;21.920;2023-10-19T04:23:09;12.15;;;7.43;;
40367;SDS011;26075;43.320;21.920;2023-10-19T04:28:11;9.32;;;7.85;;
40367;SDS011;26075;43.320;21.920;2023-10-19T04:33:13;10.35;;;7.70;;
40367;SDS011;26075;43.320;21.920;2023-10-19T04:38:16;12.75;;;8.30;;
40367;SDS011;26075;43.320;21.920;2023-10-19T04:43:18;12.55;;;8.20;;
40367;SDS011;26075;43.320;21.920;2023-10-19T04:48:21;15.43;;;8.50;;
40367;SDS011;26075;43.320;21.920;2023-10-19T04:53:22;9.93;;;6.15;;
40367;SDS011;26075;43.320;21.920;2023-10-19T04:58:23;13.63;;;6.20;;
40367;SDS011;26075;43.320;21.920;2023-10-19T05:03:27;8.68;;;6.45;;
40367;SDS011;26075;43.320;21.920;2023-10-19T05:08:29;8.15;;;6.40;;
40367;SDS011;26075;43.320;21.920;2023-10-19T05:13:32;9.32;;;7.70;;
40367;SDS011;26075;43.320;21.920;2023-10-19T05:18:35;11.23;;;6.93;;
40367;SDS011;26075;43.320;21.920;2023-10-19T05:23:36;9.70;;;6.97;;
40367;SDS011;26075;43.320;21.920;2023-10-19T05:28:37;9.45;;;7.07;;
40367;SDS011;26075;43.320;21.920;2023-10-19T05:33:38;10.77;;;7.68;;
40367;SDS011;26075;43.320;21.920;2023-10-19T05:38:39;9.48;;;6.57;;
40367;SDS011;26075;43.320;21.920;2023-10-19T05:43:41;9.38;;;6.63;;
40367;SDS011;26075;43.320;21.920;2023-10-19T05:48:42;9.70;;;7.18;;
40367;SDS011;26075;43.320;21.920;2023-10-19T05:53:43;18.55;;;8.23;;
40367;SDS011;26075;43.320;21.920;2023-10-19T05:58:44;8.35;;;6.55;;
40367;SDS011;26075;43.320;21.920;2023-10-19T06:03:48;9.57;;;6.95;;
40367;SDS011;26075;43.320;21.920;2023-10-19T06:08:50;9.05;;;6.72;;
40367;SDS011;26075;43.320;21.920;2023-10-19T06:13:53;10.32;;;8.02;;
40367;SDS011;26075;43.320;21.920;2023-10-19T06:18:54;10.52;;;7.78;;
40367;SDS011;26075;43.320;21.920;2023-10-19T06:23:56;12.95;;;8.27;;
40367;SDS011;26075;43.320;21.920;2023-10-19T06:28:57;12.27;;;8.25;;
40367;SDS011;26075;43.320;21.920;2023-10-19T06:33:59;14.68;;;7.50;;
40367;SDS011;26075;43.320;21.920;2023-10-19T06:39:00;14.90;;;8.80;;
40367;SDS011;26075;43.320;21.920;2023-10-19T06:44:06;12.75;;;8.68;;
40367;SDS011;26075;43.320;21.920;2023-10-19T06:49:07;14.43;;;8.55;;
40367;SDS011;26075;43.320;21.920;2023-10-19T06:54:08;14.43;;;7.95;;
40367;SDS011;26075;43.320;21.920;2023-10-19T06:59:09;10.55;;;7.80;;
40367;SDS011;26075;43.320;21.920;2023-10-19T07:04:10;13.77;;;7.03;;
40367;SDS011;26075;43.320;21.920;2023-10-19T07:09:11;10.68;;;7.55;;
40367;SDS011;26075;43.320;21.920;2023-10-19T07:14:12;12.88;;;7.55;;
40367;SDS011;26075;43.320;21.920;2023-10-19T07:19:13;12.77;;;8.05;;
40367;SDS011;26075;43.320;21.920;2023-10-19T07:24:15;8.98;;;7.55;;
40367;SDS011;26075;43.320;21.920;2023-10-19T07:29:21;12.70;;;7.00;;
40367;SDS011;26075;43.320;21.920;2023-10-19T07:34:22;13.98;;;6.50;;
40367;SDS011;26075;43.320;21.920;2023-10-19T07:39:27;11.90;;;6.90;;
40367;SDS011;26075;43.320;21.920;2023-10-19T07:44:29;10.43;;;7.45;;
40367;SDS011;26075;43.320;21.920;2023-10-19T07:49:30;8.85;;;6.60;;
40367;SDS011;26075;43.320;21.920;2023-10-19T07:54:36;7.85;;;6.38;;
40367;SDS011;26075;43.320;21.920;2023-10-19T07:59:38;8.45;;;5.95;;
40367;SDS011;26075;43.320;21.920;2023-10-19T08:04:39;7.60;;;5.07;;
40367;SDS011;26075;43.320;21.920;2023-10-19T08:09:40;13.43;;;6.70;;
40367;SDS011;26075;43.320;21.920;2023-10-19T08:14:41;8.55;;;6.00;;
40367;SDS011;26075;43.320;21.920;2023-10-19T08:19:43;7.50;;;5.88;;
40367;SDS011;26075;43.320;21.920;2023-10-19T08:24:44;10.65;;;5.72;;
40367;SDS011;26075;43.320;21.920;2023-10-19T08:29:46;8.85;;;5.97;;
40367;SDS011;26075;43.320;21.920;2023-10-19T08:34:47;8.38;;;6.22;;
40367;SDS011;26075;43.320;21.920;2023-10-19T08:39:48;10.18;;;6.57;;
40367;SDS011;26075;43.320;21.920;2023-10-19T08:44:50;10.98;;;6.07;;
40367;SDS011;26075;43.320;21.920;2023-10-19T08:49:52;11.40;;;6.63;;
40367;SDS011;26075;43.320;21.920;2023-10-19T08:54:54;9.23;;;6.25;;
40367;SDS011;26075;43.320;21.920;2023-10-19T08:59:55;11.27;;;7.07;;
40367;SDS011;26075;43.320;21.920;2023-10-19T09:04:58;8.68;;;6.63;;
40367;SDS011;26075;43.320;21.920;2023-10-19T09:14:56;8.57;;;5.80;;
40367;SDS011;26075;43.320;21.920;2023-10-19T09:19:57;9.95;;;5.65;;
40367;SDS011;26075;43.320;21.920;2023-10-19T09:25:02;9.50;;;6.25;;
40367;SDS011;26075;43.320;21.920;2023-10-19T09:30:06;8.27;;;5.80;;
40367;SDS011;26075;43.320;21.920;2023-10-19T09:35:09;10.43;;;6.25;;
40367;SDS011;26075;43.320;21.920;2023-10-19T09:40:15;13.02;;;6.72;;
40367;SDS011;26075;43.320;21.920;2023-10-19T09:45:19;6.65;;;5.30;;
40367;SDS011;26075;43.320;21.920;2023-10-19T09:50:20;7.80;;;5.30;;
40367;SDS011;26075;43.320;21.920;2023-10-19T09:55:27;9.77;;;4.78;;
40367;SDS011;26075;43.320;21.920;2023-10-19T10:00:30;6.60;;;4.13;;
40367;SDS011;26075;43.320;21.920;2023-10-19T10:10:49;6.32;;;3.88;;
40367;SDS011;26075;43.320;21.920;2023-10-19T10:15:54;6.32;;;4.30;;
40367;SDS011;26075;43.320;21.920;2023-10-19T10:26:10;6.63;;;4.00;;
40367;SDS011;26075;43.320;21.920;2023-10-19T10:31:12;7.53;;;4.18;;
40367;SDS011;26075;43.320;21.920;2023-10-19T10:36:14;7.75;;;4.30;;
40367;SDS011;26075;43.320;21.920;2023-10-19T10:41:23;10.73;;;4.57;;
40367;SDS011;26075;43.320;21.920;2023-10-19T10:46:31;6.37;;;4.17;;
40367;SDS011;26075;43.320;21.920;2023-10-19T10:51:33;5.90;;;3.72;;
40367;SDS011;26075;43.320;21.920;2023-10-19T10:56:39;10.80;;;4.68;;
40367;SDS011;26075;43.320;21.920;2023-10-19T11:01:41;6.05;;;4.38;;
40367;SDS011;26075;43.320;21.920;2023-10-19T11:06:47;9.15;;;4.28;;
40367;SDS011;26075;43.320;21.920;2023-10-19T11:11:49;6.45;;;4.28;;
40367;SDS011;26075;43.320;21.920;2023-10-19T11:16:52;6.45;;;4.53;;
40367;SDS011;26075;43.320;21.920;2023-10-19T11:21:53;8.13;;;4.28;;
40367;SDS011;26075;43.320;21.920;2023-10-19T11:26:55;9.85;;;4.88;;
40367;SDS011;26075;43.320;21.920;2023-10-19T11:31:56;8.57;;;4.70;;
40367;SDS011;26075;43.320;21.920;2023-10-19T11:36:58;4.95;;;3.78;;
40367;SDS011;26075;43.320;21.920;2023-10-19T11:41:59;8.40;;;4.25;;
40367;SDS011;26075;43.320;21.920;2023-10-19T11:47:00;6.93;;;4.85;;
40367;SDS011;26075;43.320;21.920;2023-10-19T11:52:05;11.07;;;4.50;;
40367;SDS011;26075;43.320;21.920;2023-10-19T11:57:07;5.22;;;3.85;;
40367;SDS011;26075;43.320;21.920;2023-10-19T12:02:09;7.25;;;4.72;;
40367;SDS011;26075;43.320;21.920;2023-10-19T12:07:11;8.45;;;4.60;;
40367;SDS011;26075;43.320;21.920;2023-10-19T12:12:12;6.70;;;4.57;;
40367;SDS011;26075;43.320;21.920;2023-10-19T12:17:14;8.63;;;4.82;;
40367;SDS011;26075;43.320;21.920;2023-10-19T12:22:15;8.32;;;5.50;;
40367;SDS011;26075;43.320;21.920;2023-10-19T12:27:16;7.88;;;5.45;;
40367;SDS011;26075;43.320;21.920;2023-10-19T12:32:18;10.45;;;4.90;;
40367;SDS011;26075;43.320;21.920;2023-10-19T12:37:19;7.80;;;4.63;;
40367;SDS011;26075;43.320;21.920;2023-10-19T12:42:20;7.50;;;4.93;;
40367;SDS011;26075;43.320;21.920;2023-10-19T12:47:23;7.82;;;4.93;;
40367;SDS011;26075;43.320;21.920;2023-10-19T12:52:24;8.07;;;5.53;;
40367;SDS011;26075;43.320;21.920;2023-10-19T12:57:25;9.57;;;5.20;;
40367;SDS011;26075;43.320;21.920;2023-10-19T13:02:27;9.10;;;5.22;;
40367;SDS011;26075;43.320;21.920;2023-10-19T13:07:30;7.95;;;5.80;;
40367;SDS011;26075;43.320;21.920;2023-10-19T13:12:31;8.00;;;5.18;;
40367;SDS011;26075;43.320;21.920;2023-10-19T13:17:32;8.65;;;4.80;;
40367;SDS011;26075;43.320;21.920;2023-10-19T13:22:35;6.60;;;4.75;;
40367;SDS011;26075;43.320;21.920;2023-10-19T13:27:36;9.57;;;5.00;;
40367;SDS011;26075;43.320;21.920;2023-10-19T13:32:37;9.75;;;6.60;;
40367;SDS011;26075;43.320;21.920;2023-10-19T13:37:38;13.02;;;6.68;;
40367;SDS011;26075;43.320;21.920;2023-10-19T13:42:39;14.57;;;7.90;;
40367;SDS011;26075;43.320;21.920;2023-10-19T13:47:42;9.52;;;5.70;;
40367;SDS011;26075;43.320;21.920;2023-10-19T13:52:43;13.80;;;6.60;;
40367;SDS011;26075;43.320;21.920;2023-10-19T13:57:44;14.45;;;6.20;;
40367;SDS011;26075;43.320;21.920;2023-10-19T14:02:46;10.48;;;5.70;;
40367;SDS011;26075;43.320;21.920;2023-10-19T14:07:47;9.13;;;6.25;;
40367;SDS011;26075;43.320;21.920;2023-10-19T14:12:48;12.38;;;6.68;;
40367;SDS011;26075;43.320;21.920;2023-10-19T14:17:49;12.32;;;7.13;;
40367;SDS011;26075;43.320;21.920;2023-10-19T14:22:51;12.63;;;9.82;;
40367;SDS011;26075;43.320;21.920;2023-10-19T14:27:54;9.85;;;7.40;;
40367;SDS011;26075;43.320;21.920;2023-10-19T14:33:01;12.55;;;6.55;;
40367;SDS011;26075;43.320;21.920;2023-10-19T14:38:04;11.77;;;6.85;;
40367;SDS011;26075;43.320;21.920;2023-10-19T14:43:06;10.07;;;6.38;;
40367;SDS011;26075;43.320;21.920;2023-10-19T14:48:07;10.13;;;6.57;;
40367;SDS011;26075;43.320;21.920;2023-10-19T14:53:11;10.90;;;6.22;;
40367;SDS011;26075;43.320;21.920;2023-10-19T14:58:12;10.10;;;6.97;;
40367;SDS011;26075;43.320;21.920;2023-10-19T15:03:13;11.00;;;6.70;;
40367;SDS011;26075;43.320;21.920;2023-10-19T15:08:16;9.25;;;6.07;;
40367;SDS011;26075;43.320;21.920;2023-10-19T15:13:17;11.70;;;6.80;;
40367;SDS011;26075;43.320;21.920;2023-10-19T15:18:18;16.67;;;7.85;;
40367;SDS011;26075;43.320;21.920;2023-10-19T15:23:19;10.07;;;6.82;;
40367;SDS011;26075;43.320;21.920;2023-10-19T15:28:21;12.65;;;6.65;;
40367;SDS011;26075;43.320;21.920;2023-10-19T15:33:22;11.20;;;6.88;;
40367;SDS011;26075;43.320;21.920;2023-10-19T15:38:23;12.27;;;7.10;;
40367;SDS011;26075;43.320;21.920;2023-10-19T15:43:24;13.23;;;6.80;;
40367;SDS011;26075;43.320;21.920;2023-10-19T15:48:25;13.20;;;7.55;;
40367;SDS011;26075;43.320;21.920;2023-10-19T15:53:26;16.17;;;6.53;;
40367;SDS011;26075;43.320;21.920;2023-10-19T15:58:27;10.75;;;7.10;;
40367;SDS011;26075;43.320;21.920;2023-10-19T16:03:28;11.05;;;7.82;;
40367;SDS011;26075;43.320;21.920;2023-10-19T16:08:29;21.20;;;11.93;;
40367;SDS011;26075;43.320;21.920;2023-10-19T16:13:31;9.02;;;6.30;;
40367;SDS011;26075;43.320;21.920;2023-10-19T16:18:32;14.65;;;6.32;;
40367;SDS011;26075;43.320;21.920;2023-10-19T16:23:33;10.93;;;7.00;;
40367;SDS011;26075;43.320;21.920;2023-10-19T16:28:34;11.73;;;6.90;;
40367;SDS011;26075;43.320;21.920;2023-10-19T16:33:36;11.25;;;7.20;;
40367;SDS011;26075;43.320;21.920;2023-10-19T16:38:38;23.30;;;10.02;;
40367;SDS011;26075;43.320;21.920;2023-10-19T16:43:39;18.20;;;10.15;;
40367;SDS011;26075;43.320;21.920;2023-10-19T16:48:40;19.83;;;10.00;;
40367;SDS011;26075;43.320;21.920;2023-10-19T16:53:41;22.70;;;9.30;;
40367;SDS011;26075;43.320;21.920;2023-10-19T16:58:42;24.65;;;9.77;;
40367;SDS011;26075;43.320;21.920;2023-10-19T17:03:44;22.58;;;8.43;;
40367;SDS011;26075;43.320;21.920;2023-10-19T17:08:45;11.30;;;7.43;;
40367;SDS011;26075;43.320;21.920;2023-10-19T17:13:46;12.48;;;6.47;;
40367;SDS011;26075;43.320;21.920;2023-10-19T17:18:52;9.82;;;5.85;;
40367;SDS011;26075;43.320;21.920;2023-10-19T17:23:53;10.65;;;6.47;;
40367;SDS011;26075;43.320;21.920;2023-10-19T17:28:55;10.70;;;6.63;;
40367;SDS011;26075;43.320;21.920;2023-10-19T17:33:57;12.15;;;6.15;;
40367;SDS011;26075;43.320;21.920;2023-10-19T17:38:58;11.02;;;6.97;;
40367;SDS011;26075;43.320;21.920;2023-10-19T17:44:00;10.43;;;6.07;;
40367;SDS011;26075;43.320;21.920;2023-10-19T17:49:03;8.18;;;5.50;;
40367;SDS011;26075;43.320;21.920;2023-10-19T17:54:05;10.93;;;6.15;;
40367;SDS011;26075;43.320;21.920;2023-10-19T17:59:09;9.10;;;5.97;;
40367;SDS011;26075;43.320;21.920;2023-10-19T18:04:12;10.00;;;6.38;;
40367;SDS011;26075;43.320;21.920;2023-10-19T18:09:14;15.20;;;7.07;;
40367;SDS011;26075;43.320;21.920;2023-10-19T18:14:15;11.13;;;6.22;;
40367;SDS011;26075;43.320;21.920;2023-10-19T18:19:17;10.00;;;6.30;;
40367;SDS011;26075;43.320;21.920;2023-10-19T18:24:19;11.30;;;6.38;;
40367;SDS011;26075;43.320;21.920;2023-10-19T18:29:20;13.88;;;6.47;;
40367;SDS011;26075;43.320;21.920;2023-10-19T18:34:21;11.63;;;6.70;;
40367;SDS011;26075;43.320;21.920;2023-10-19T18:39:25;12.48;;;7.00;;
40367;SDS011;26075;43.320;21.920;2023-10-19T18:44:26;12.57;;;6.50;;
40367;SDS011;26075;43.320;21.920;2023-10-19T18:49:28;14.63;;;6.63;;
40367;SDS011;26075;43.320;21.920;2023-10-19T18:54:31;14.32;;;6.78;;
40367;SDS011;26075;43.320;21.920;2023-10-19T18:59:33;11.70;;;6.70;;
40367;SDS011;26075;43.320;21.920;2023-10-19T19:04:34;15.77;;;7.60;;
40367;SDS011;26075;43.320;21.920;2023-10-19T19:09:36;18.35;;;10.82;;
40367;SDS011;26075;43.320;21.920;2023-10-19T19:14:38;16.67;;;10.27;;
40367;SDS011;26075;43.320;21.920;2023-10-19T19:19:39;19.65;;;10.50;;
40367;SDS011;26075;43.320;21.920;2023-10-19T19:24:40;18.10;;;10.00;;
40367;SDS011;26075;43.320;21.920;2023-10-19T19:29:42;20.33;;;10.45;;
40367;SDS011;26075;43.320;21.920;2023-10-19T19:34:43;17.80;;;9.55;;
40367;SDS011;26075;43.320;21.920;2023-10-19T19:39:46;13.10;;;7.70;;
40367;SDS011;26075;43.320;21.920;2023-10-19T19:44:47;12.45;;;7.53;;
40367;SDS011;26075;43.320;21.920;2023-10-19T19:49:48;12.27;;;6.43;;
40367;SDS011;26075;43.320;21.920;2023-10-19T19:54:49;14.18;;;8.05;;
40367;SDS011;26075;43.320;21.920;2023-10-19T19:59:53;12.30;;;6.97;;
40367;SDS011;26075;43.320;21.920;2023-10-19T20:04:54;9.30;;;6.18;;
40367;SDS011;26075;43.320;21.920;2023-10-19T20:09:57;11.45;;;5.57;;
40367;SDS011;26075;43.320;21.920;2023-10-19T20:14:58;17.98;;;6.40;;
40367;SDS011;26075;43.320;21.920;2023-10-19T20:20:01;11.23;;;6.30;;
40367;SDS011;26075;43.320;21.920;2023-10-19T20:25:13;9.05;;;5.30;;
40367;SDS011;26075;43.320;21.920;2023-10-19T20:30:14;13.15;;;6.65;;
40367;SDS011;26075;43.320;21.920;2023-10-19T20:35:18;12.88;;;6.40;;
40367;SDS011;26075;43.320;21.920;2023-10-19T20:40:19;14.77;;;6.70;;
40367;SDS011;26075;43.320;21.920;2023-10-19T20:45:23;13.18;;;6.65;;
40367;SDS011;26075;43.320;21.920;2023-10-19T20:50:26;13.30;;;6.22;;
40367;SDS011;26075;43.320;21.920;2023-10-19T20:55:27;9.30;;;5.97;;
40367;SDS011;26075;43.320;21.920;2023-10-19T21:00:28;11.00;;;6.07;;
40367;SDS011;26075;43.320;21.920;2023-10-19T21:05:30;8.50;;;5.95;;
40367;SDS011;26075;43.320;21.920;2023-10-19T21:10:33;11.45;;;6.18;;
40367;SDS011;26075;43.320;21.920;2023-10-19T21:15:35;16.50;;;9.70;;
40367;SDS011;26075;43.320;21.920;2023-10-19T21:20:36;14.40;;;9.52;;
40367;SDS011;26075;43.320;21.920;2023-10-19T21:25:39;12.88;;;9.07;;
40367;SDS011;26075;43.320;21.920;2023-10-19T21:30:40;18.90;;;14.30;;
40367;SDS011;26075;43.320;21.920;2023-10-19T21:35:41;18.83;;;13.45;;
40367;SDS011;26075;43.320;21.920;2023-10-19T21:40:43;20.85;;;13.90;;
40367;SDS011;26075;43.320;21.920;2023-10-19T21:45:44;15.23;;;9.93;;
40367;SDS011;26075;43.320;21.920;2023-10-19T21:50:45;18.88;;;9.90;;
40367;SDS011;26075;43.320;21.920;2023-10-19T21:55:47;12.40;;;8.48;;
40367;SDS011;26075;43.320;21.920;2023-10-19T22:00:52;13.40;;;8.10;;
40367;SDS011;26075;43.320;21.920;2023-10-19T22:06:05;11.35;;;7.72;;
40367;SDS011;26075;43.320;21.920;2023-10-19T22:11:06;12.98;;;7.45;;
40367;SDS011;26075;43.320;21.920;2023-10-19T22:16:07;11.27;;;6.00;;
40367;SDS011;26075;43.320;21.920;2023-10-19T22:21:08;9.00;;;5.35;;
40367;SDS011;26075;43.320;21.920;2023-10-19T22:26:09;10.15;;;6.00;;
40367;SDS011;26075;43.320;21.920;2023-10-19T22:31:11;11.77;;;6.20;;
40367;SDS011;26075;43.320;21.920;2023-10-19T22:36:13;10.65;;;6.85;;
40367;SDS011;26075;43.320;21.920;2023-10-19T22:41:15;10.23;;;5.93;;
40367;SDS011;26075;43.320;21.920;2023-10-19T22:46:16;12.52;;;8.10;;
40367;SDS011;26075;43.320;21.920;2023-10-19T22:51:17;14.88;;;8.73;;
40367;SDS011;26075;43.320;21.920;2023-10-19T22:56:18;18.27;;;9.95;;
40367;SDS011;26075;43.320;21.920;2023-10-19T23:01:19;16.00;;;7.70;;
40367;SDS011;26075;43.320;21.920;2023-10-19T23:06:21;13.02;;;6.38;;
40367;SDS011;26075;43.320;21.920;2023-10-19T23:11:25;7.60;;;4.40;;
40367;SDS011;26075;43.320;21.920;2023-10-19T23:16:29;11.15;;;5.03;;
40367;SDS011;26075;43.320;21.920;2023-10-19T23:21:35;7.32;;;5.13;;
40367;SDS011;26075;43.320;21.920;2023-10-19T23:26:37;15.38;;;8.00;;
40367;SDS011;26075;43.320;21.920;2023-10-19T23:31:39;8.93;;;5.63;;
40367;SDS011;26075;43.320;21.920;2023-10-19T23:36:40;15.23;;;6.63;;
40367;SDS011;26075;43.320;21.920;2023-10-19T23:41:42;12.48;;;5.25;;
40367;SDS011;26075;43.320;21.920;2023-10-19T23:46:43;9.65;;;4.57;;
40367;SDS011;26075;43.320;21.920;2023-10-19T23:51:44;8.18;;;5.00;;
40367;SDS011;26075;43.320;21.920;2023-10-19T23:56:46;11.85;;;5.00;;
